Adrian, Georgia
Current Conditions -  °F | °C
As of 6:15 AM on Saturday 01 Nov 2014 (Local Time) from KSBO Reporting Station
Clear Clear  
Wind Chill: 36°   Ceiling: Unl
Heat Index: 43°   Visibility: 10mi
Dew Point: 32°   Wind: 13mph
Humidity: 66%   Direction: 280°W
Pressure: 29.86"   Gusts: 17mph
Location:  32.53°N, 82.59°W
Report Text: KSBO 011015Z AUTO 28011G15KT 10SM CLR 06/00 A2986 RMK AO2
Loading
Personal Weather Stations






























Interactive Weather Map
Tropical Storm Tracking
New forecast layout! Learn more

10-Day Weather Forecast

Advertisements
Track Severe Weather on mobile